createdAt,value
2022-10-01T00:00:56.455Z,49.30
2022-10-01T00:03:50.639Z,54.60
2022-10-01T00:06:32.329Z,52.90
2022-10-01T00:09:14.022Z,55.00
2022-10-01T00:11:56.941Z,52.60
2022-10-01T00:14:39.603Z,51.70
2022-10-01T00:17:21.311Z,51.60
2022-10-01T00:20:14.019Z,47.40
2022-10-01T00:22:56.301Z,49.10
2022-10-01T00:25:38.914Z,47.20
2022-10-01T00:28:21.097Z,49.70
2022-10-01T00:31:02.806Z,50.60
2022-10-01T00:33:44.906Z,47.30
2022-10-01T00:36:27.313Z,56.00
2022-10-01T00:39:11.378Z,46.80
2022-10-01T00:41:53.258Z,49.90
2022-10-01T00:44:37.813Z,43.20
2022-10-01T00:47:37.631Z,47.80
2022-10-01T00:50:26.474Z,45.40
2022-10-01T00:53:12.428Z,48.10
2022-10-01T00:55:57.243Z,49.70
2022-10-01T00:58:39.753Z,50.50
2022-10-01T01:01:22.470Z,43.90
2022-10-01T01:04:16.473Z,48.80
2022-10-01T01:07:02.748Z,45.50
2022-10-01T01:09:47.306Z,44.10
2022-10-01T01:12:45.583Z,46.10
2022-10-01T01:15:51.579Z,46.60
2022-10-01T01:18:52.589Z,43.90
2022-10-01T01:21:44.521Z,44.40
2022-10-01T01:24:56.112Z,47.40
2022-10-01T01:27:51.276Z,51.30
2022-10-01T01:30:34.240Z,47.90
2022-10-01T01:33:20.947Z,45.00
2022-10-01T01:36:32.405Z,49.00
2022-10-01T01:39:17.302Z,49.80
2022-10-01T01:42:05.420Z,46.40
2022-10-01T01:44:49.389Z,44.50
2022-10-01T01:47:34.663Z,44.60
2022-10-01T01:50:17.179Z,46.20
2022-10-01T01:53:00.092Z,50.50
2022-10-01T01:55:45.445Z,46.30
2022-10-01T01:58:28.391Z,46.00
2022-10-01T02:01:35.599Z,42.10
2022-10-01T02:04:26.179Z,46.30
2022-10-01T02:07:45.453Z,47.10
2022-10-01T02:10:39.224Z,46.10
2022-10-01T02:13:35.456Z,46.90
2022-10-01T02:16:36.091Z,47.50
2022-10-01T02:22:19.974Z,48.30
2022-10-01T02:25:05.341Z,48.60
2022-10-01T02:27:55.947Z,45.50
2022-10-01T02:33:25.866Z,44.40
2022-10-01T02:36:10.281Z,45.00
2022-10-01T02:38:53.445Z,40.50
2022-10-01T02:41:36.865Z,45.10
2022-10-01T02:44:23.484Z,48.00
2022-10-01T02:47:17.770Z,44.70
2022-10-01T02:50:01.332Z,41.50
2022-10-01T02:52:53.040Z,43.00
2022-10-01T02:55:39.654Z,44.80
2022-10-01T02:58:21.365Z,47.40
2022-10-01T03:01:03.779Z,46.70
2022-10-01T03:03:46.142Z,45.60
2022-10-01T03:06:28.345Z,47.40
2022-10-01T03:09:10.038Z,44.50
2022-10-01T03:11:51.727Z,43.90
2022-10-01T03:14:34.239Z,45.90
2022-10-01T03:17:16.952Z,44.60
2022-10-01T03:19:58.645Z,45.70
2022-10-01T03:22:40.334Z,44.10
2022-10-01T03:25:21.950Z,44.30
2022-10-01T03:28:06.451Z,48.80
2022-10-01T03:30:48.274Z,43.10
2022-10-01T03:33:29.968Z,47.20
2022-10-01T03:36:11.699Z,43.40
2022-10-01T03:38:53.449Z,40.60
2022-10-01T03:41:35.346Z,43.20
2022-10-01T03:44:17.754Z,44.00
2022-10-01T03:46:59.853Z,45.30
2022-10-01T03:49:41.543Z,41.20
2022-10-01T03:52:23.235Z,43.60
2022-10-01T03:55:06.052Z,48.30
2022-10-01T03:57:47.947Z,47.40
2022-10-01T04:00:29.639Z,45.20
2022-10-01T04:03:11.462Z,45.10
2022-10-01T04:05:53.123Z,46.10
2022-10-01T04:08:34.917Z,47.90
2022-10-01T04:11:16.813Z,42.50
2022-10-01T04:13:58.504Z,44.70
2022-10-01T04:16:40.222Z,40.10
2022-10-01T04:19:21.819Z,47.40
2022-10-01T04:22:03.678Z,45.90
2022-10-01T04:24:45.284Z,41.00
2022-10-01T04:27:26.959Z,46.70
2022-10-01T04:30:10.395Z,45.00
2022-10-01T04:32:52.080Z,40.60
2022-10-01T04:35:33.975Z,42.30
2022-10-01T04:38:17.305Z,46.10
2022-10-01T04:40:59.098Z,45.60
2022-10-01T04:43:41.301Z,44.30
2022-10-01T04:46:23.159Z,40.40
2022-10-01T04:49:04.991Z,47.60
2022-10-01T04:51:46.562Z,44.70
2022-10-01T04:54:28.270Z,46.70
2022-10-01T04:57:09.960Z,43.80
2022-10-01T04:59:51.651Z,47.60
2022-10-01T05:02:34.749Z,40.70
2022-10-01T05:05:18.834Z,46.00
2022-10-01T05:08:00.923Z,43.00
2022-10-01T05:10:42.882Z,42.00
2022-10-01T05:13:27.889Z,45.20
2022-10-01T05:16:10.009Z,44.80
2022-10-01T05:18:51.680Z,42.60
2022-10-01T05:21:33.587Z,40.70
2022-10-01T05:24:16.393Z,46.30
2022-10-01T05:26:58.698Z,41.20
2022-10-01T05:29:41.721Z,41.10
2022-10-01T05:32:23.531Z,42.80
2022-10-01T05:35:07.242Z,39.80
2022-10-01T05:37:53.144Z,44.30
2022-10-01T05:40:34.832Z,46.30
2022-10-01T05:43:16.422Z,48.20
2022-10-01T05:46:02.172Z,47.90
2022-10-01T05:48:44.001Z,50.50
2022-10-01T05:51:25.999Z,43.50
2022-10-01T05:54:08.509Z,50.40
2022-10-01T05:56:50.611Z,49.50
2022-10-01T05:59:32.347Z,51.80
2022-10-01T06:02:14.062Z,48.20
2022-10-01T06:04:55.990Z,48.20
2022-10-01T06:07:37.682Z,53.30
2022-10-01T06:10:20.934Z,57.60
2022-10-01T06:13:06.535Z,55.70
2022-10-01T06:15:48.287Z,56.70
2022-10-01T06:18:29.987Z,56.10
2022-10-01T06:21:11.665Z,54.10
2022-10-01T06:23:53.765Z,53.60
2022-10-01T06:26:36.684Z,50.60
2022-10-01T06:29:20.732Z,58.90
2022-10-01T06:32:02.388Z,51.20
2022-10-01T06:34:44.215Z,52.90
2022-10-01T06:37:26.034Z,51.40
2022-10-01T06:40:08.415Z,49.70
2022-10-01T06:42:55.996Z,60.40
2022-10-01T06:45:41.306Z,54.70
2022-10-01T06:48:23.628Z,54.40
2022-10-01T06:51:06.037Z,57.70
2022-10-01T06:53:47.725Z,57.40
2022-10-01T06:56:29.313Z,51.90
2022-10-01T06:59:11.006Z,61.10
2022-10-01T07:01:56.396Z,58.30
2022-10-01T07:04:38.585Z,55.10
2022-10-01T07:07:20.185Z,48.60
2022-10-01T07:10:02.798Z,53.10
2022-10-01T07:12:44.579Z,49.80
2022-10-01T07:15:26.166Z,49.10
2022-10-01T07:18:11.237Z,44.80
2022-10-01T07:20:52.928Z,51.00
2022-10-01T07:23:34.620Z,44.40
2022-10-01T07:26:16.312Z,40.00
2022-10-01T07:28:58.000Z,44.00
2022-10-01T07:31:39.735Z,43.40
2022-10-01T07:34:22.510Z,42.60
2022-10-01T07:37:04.610Z,43.50
2022-10-01T07:39:46.299Z,40.30
2022-10-01T07:42:28.298Z,43.00
2022-10-01T07:45:11.221Z,40.30
2022-10-01T07:48:00.152Z,37.70
2022-10-01T07:50:46.068Z,42.40
2022-10-01T07:53:28.375Z,37.10
2022-10-01T07:56:09.990Z,35.20
2022-10-01T07:58:55.648Z,41.80
2022-10-01T08:01:38.373Z,35.60
2022-10-01T08:04:40.431Z,37.80
2022-10-01T08:07:22.125Z,32.60
2022-10-01T08:10:04.806Z,33.50
2022-10-01T08:12:47.040Z,32.90
2022-10-01T08:15:29.400Z,34.30
2022-10-01T08:18:12.273Z,32.50
2022-10-01T08:20:53.956Z,29.70
2022-10-01T08:23:36.567Z,31.50
2022-10-01T08:26:18.259Z,29.70
2022-10-01T08:29:00.054Z,26.80
2022-10-01T08:31:41.879Z,25.00
2022-10-01T08:34:23.843Z,22.90
2022-10-01T08:37:05.533Z,25.90
2022-10-01T08:39:47.237Z,27.40
2022-10-01T08:42:35.634Z,19.30
2022-10-01T08:45:43.364Z,21.00
2022-10-01T08:48:38.386Z,19.90
2022-10-01T08:51:40.038Z,21.20
2022-10-01T08:54:46.510Z,19.90
2022-10-01T08:57:32.500Z,23.80
2022-10-01T09:00:16.649Z,20.90
2022-10-01T09:03:04.601Z,18.20
2022-10-01T09:05:58.592Z,21.10
2022-10-01T09:08:52.842Z,20.90
2022-10-01T09:11:59.323Z,23.60
2022-10-01T09:15:08.663Z,19.20
2022-10-01T09:18:18.616Z,16.30
2022-10-01T09:21:00.717Z,19.30
2022-10-01T09:23:58.279Z,19.40
2022-10-01T09:26:45.192Z,17.50
2022-10-01T09:29:40.094Z,17.90
2022-10-01T09:32:30.488Z,18.00
2022-10-01T09:38:12.524Z,16.60
2022-10-01T09:40:55.810Z,16.70
2022-10-01T09:43:39.850Z,16.20
2022-10-01T09:46:21.605Z,16.70
2022-10-01T09:49:28.046Z,19.20
2022-10-01T09:52:18.482Z,17.10
2022-10-01T09:55:06.488Z,15.80
2022-10-01T09:57:53.998Z,16.10
2022-10-01T10:00:37.995Z,16.10
2022-10-01T10:03:31.093Z,15.40
2022-10-01T10:06:14.134Z,15.10
2022-10-01T10:08:58.151Z,11.30
2022-10-01T10:11:42.891Z,15.60
2022-10-01T10:14:31.801Z,14.30
2022-10-01T10:17:16.946Z,16.40
2022-10-01T10:19:59.139Z,16.30
2022-10-01T10:22:40.867Z,13.30
2022-10-01T10:25:24.709Z,14.90
2022-10-01T10:28:20.221Z,13.20
2022-10-01T10:31:02.137Z,13.00
2022-10-01T10:33:55.793Z,12.60
2022-10-01T10:40:53.381Z,13.00
2022-10-01T10:43:38.327Z,14.70
2022-10-01T10:46:23.532Z,15.30
2022-10-01T10:49:18.563Z,14.50
2022-10-01T10:52:01.856Z,14.30
2022-10-01T10:54:47.956Z,20.90
2022-10-01T10:57:34.661Z,16.30
2022-10-01T11:00:26.188Z,14.40
2022-10-01T11:03:15.019Z,14.90
2022-10-01T11:06:09.119Z,17.00
2022-10-01T11:09:02.599Z,15.10
2022-10-01T11:12:09.570Z,16.70
2022-10-01T11:14:57.610Z,16.60
2022-10-01T11:17:55.639Z,17.40
2022-10-01T11:21:01.032Z,16.80
2022-10-01T11:24:04.020Z,13.50
2022-10-01T11:27:11.678Z,16.00
2022-10-01T11:30:26.819Z,16.90
2022-10-01T11:33:18.009Z,16.70
2022-10-01T11:36:21.510Z,15.40
2022-10-01T11:39:10.259Z,15.20
2022-10-01T11:41:59.434Z,13.50
2022-10-01T11:45:03.606Z,12.70
2022-10-01T11:47:54.255Z,17.90
2022-10-01T11:50:48.549Z,16.60
2022-10-01T11:53:45.100Z,14.10
2022-10-01T11:56:54.212Z,11.60
2022-10-01T11:59:50.122Z,11.50
2022-10-01T12:02:39.098Z,11.10
2022-10-01T12:05:29.314Z,20.30
2022-10-01T12:08:22.228Z,23.50
2022-10-01T12:11:16.428Z,17.90
2022-10-01T12:14:09.076Z,14.00
2022-10-01T12:17:04.795Z,11.60
2022-10-01T12:19:53.334Z,10.80
2022-10-01T12:22:39.030Z,11.60
2022-10-01T12:25:26.558Z,13.30
2022-10-01T12:28:21.471Z,12.80
2022-10-01T12:31:11.026Z,11.50
2022-10-01T12:34:06.652Z,17.50
2022-10-01T12:37:41.798Z,12.00
2022-10-01T12:40:40.043Z,13.40
2022-10-01T12:43:40.131Z,10.40
2022-10-01T12:46:52.637Z,13.20
2022-10-01T12:50:05.841Z,10.60
2022-10-01T12:53:02.998Z,12.60
2022-10-01T12:55:55.130Z,11.30
2022-10-01T12:59:06.621Z,14.00
2022-10-01T13:02:10.890Z,10.70
2022-10-01T13:05:24.683Z,10.90
2022-10-01T13:08:27.878Z,12.50
2022-10-01T13:11:28.963Z,13.00
2022-10-01T13:14:19.071Z,14.50
2022-10-01T13:17:18.625Z,15.40
2022-10-01T13:20:09.223Z,14.10
2022-10-01T13:23:13.032Z,144.10
2022-10-01T13:26:23.403Z,89.40
2022-10-01T13:29:27.072Z,26.00
2022-10-01T13:32:26.510Z,20.00
2022-10-01T13:35:25.816Z,22.40
2022-10-01T13:38:15.000Z,18.00
2022-10-01T13:41:05.270Z,20.70
2022-10-01T13:43:59.351Z,54.40
2022-10-01T13:46:53.856Z,32.70
2022-10-01T13:49:37.889Z,14.80
2022-10-01T13:52:21.136Z,18.10
2022-10-01T13:55:03.319Z,15.00
2022-10-01T13:57:44.971Z,17.30
2022-10-01T14:00:27.673Z,13.80
2022-10-01T14:03:51.093Z,17.70
2022-10-01T14:06:35.183Z,20.80
2022-10-01T14:09:26.455Z,18.30
2022-10-01T14:12:31.800Z,15.00
2022-10-01T14:15:36.150Z,16.00
2022-10-01T14:18:24.284Z,16.90
2022-10-01T14:21:50.910Z,14.30
2022-10-01T14:25:10.284Z,23.80
2022-10-01T14:28:18.614Z,14.10
2022-10-01T14:31:15.670Z,15.00
2022-10-01T14:34:32.054Z,17.50
2022-10-01T14:37:18.279Z,12.90
2022-10-01T14:40:01.683Z,17.40
2022-10-01T14:42:44.000Z,32.70
2022-10-01T14:45:25.784Z,9.20
2022-10-01T14:48:10.031Z,12.10
2022-10-01T14:50:57.618Z,10.50
2022-10-01T14:53:43.141Z,13.80
2022-10-01T14:56:28.007Z,14.70
2022-10-01T14:59:20.143Z,9.90
2022-10-01T15:02:04.684Z,10.60
2022-10-01T15:04:51.887Z,9.50
2022-10-01T15:07:35.865Z,13.20
2022-10-01T15:10:20.602Z,10.90
2022-10-01T15:13:02.627Z,10.60
2022-10-01T15:15:44.521Z,13.50
2022-10-01T15:18:27.036Z,13.70
2022-10-01T15:21:18.041Z,20.30
2022-10-01T15:23:59.943Z,14.10
2022-10-01T15:26:41.709Z,27.00
2022-10-01T15:29:24.157Z,14.50
2022-10-01T15:32:07.161Z,19.90
2022-10-01T15:34:53.254Z,18.70
2022-10-01T15:37:37.172Z,13.60
2022-10-01T15:40:30.831Z,28.10
2022-10-01T15:43:24.544Z,26.30
2022-10-01T15:46:20.181Z,17.10
2022-10-01T15:49:13.218Z,15.50
2022-10-01T15:52:19.441Z,25.10
2022-10-01T15:55:01.178Z,14.60
2022-10-01T15:57:45.117Z,30.30
2022-10-01T16:00:29.761Z,22.30
2022-10-01T16:03:19.986Z,33.00
2022-10-01T16:06:04.131Z,24.70
2022-10-01T16:09:05.202Z,17.10
2022-10-01T16:11:59.141Z,13.60
2022-10-01T16:14:44.233Z,19.90
2022-10-01T16:17:31.431Z,12.90
2022-10-01T16:20:17.015Z,13.90
2022-10-01T16:23:32.137Z,16.70
2022-10-01T16:26:38.640Z,16.60
2022-10-01T16:29:26.205Z,14.50
2022-10-01T16:32:13.688Z,17.80
2022-10-01T16:35:15.785Z,17.80
2022-10-01T16:37:58.297Z,21.20
2022-10-01T16:40:43.581Z,17.70
2022-10-01T16:43:25.420Z,20.10
2022-10-01T16:46:07.205Z,27.80
2022-10-01T16:48:53.770Z,18.90
2022-10-01T16:51:35.559Z,18.50
2022-10-01T16:54:27.591Z,19.40
2022-10-01T16:57:14.112Z,17.70
2022-10-01T17:00:03.277Z,17.90
2022-10-01T17:02:47.509Z,17.50
2022-10-01T17:05:37.380Z,15.60
2022-10-01T17:08:19.869Z,15.40
2022-10-01T17:11:04.379Z,17.80
2022-10-01T17:13:49.201Z,17.60
2022-10-01T17:16:31.058Z,18.00
2022-10-01T17:19:13.987Z,19.70
2022-10-01T17:21:56.041Z,18.70
2022-10-01T17:24:38.479Z,16.50
2022-10-01T17:27:20.872Z,18.60
2022-10-01T17:30:03.786Z,28.80
2022-10-01T17:32:46.666Z,22.40
2022-10-01T17:35:29.820Z,28.20
2022-10-01T17:38:13.321Z,26.10
2022-10-01T17:40:56.856Z,21.10
2022-10-01T17:43:41.752Z,15.40
2022-10-01T17:46:23.910Z,14.30
2022-10-01T17:49:08.514Z,16.60
2022-10-01T17:51:50.718Z,15.70
2022-10-01T17:54:34.155Z,15.00
2022-10-01T17:57:16.289Z,16.70
2022-10-01T17:59:58.705Z,22.60
2022-10-01T18:02:42.872Z,15.70
2022-10-01T18:05:25.211Z,17.00
2022-10-01T18:08:08.989Z,15.20
2022-10-01T18:10:52.455Z,16.00
2022-10-01T18:13:39.104Z,14.80
2022-10-01T18:16:21.974Z,18.10
2022-10-01T18:22:13.627Z,16.10
2022-10-01T18:24:56.987Z,14.20
2022-10-01T18:27:39.702Z,13.40
2022-10-01T18:30:22.004Z,21.50
2022-10-01T18:33:04.211Z,17.90
2022-10-01T18:35:51.631Z,15.90
2022-10-01T18:38:35.667Z,23.40
2022-10-01T18:41:39.206Z,22.40
2022-10-01T18:44:21.735Z,19.10
2022-10-01T18:47:24.271Z,20.30
2022-10-01T18:50:35.539Z,16.60
2022-10-01T18:53:36.703Z,17.40
2022-10-01T18:56:29.315Z,16.50
2022-10-01T18:59:32.676Z,19.20
2022-10-01T19:02:36.050Z,18.10
2022-10-01T19:05:25.559Z,17.20
2022-10-01T19:08:11.560Z,21.20
2022-10-01T19:11:08.413Z,19.00
2022-10-01T19:14:28.450Z,22.00
2022-10-01T19:17:24.349Z,21.20
2022-10-01T19:20:45.905Z,17.70
2022-10-01T19:24:07.621Z,19.20
2022-10-01T19:27:09.800Z,23.50
2022-10-01T19:29:58.115Z,16.40
2022-10-01T19:32:59.397Z,15.90
2022-10-01T19:35:47.029Z,18.20
2022-10-01T19:38:41.007Z,20.70
2022-10-01T19:41:44.103Z,17.60
2022-10-01T19:44:40.979Z,16.20
2022-10-01T19:47:45.120Z,17.10
2022-10-01T19:50:50.951Z,18.10
2022-10-01T19:53:37.652Z,18.70
2022-10-01T19:56:26.283Z,21.70
2022-10-01T19:59:15.689Z,19.30
2022-10-01T20:02:25.823Z,19.30
2022-10-01T20:05:16.528Z,16.10
2022-10-01T20:08:10.286Z,20.90
2022-10-01T20:11:28.128Z,19.70
2022-10-01T20:15:01.585Z,18.10
2022-10-01T20:17:51.301Z,20.50
2022-10-01T20:21:07.116Z,21.70
2022-10-01T20:23:55.093Z,23.00
2022-10-01T20:27:17.912Z,21.20
2022-10-01T20:30:07.617Z,21.00
2022-10-01T20:32:57.705Z,19.20
2022-10-01T20:36:15.378Z,17.60
2022-10-01T20:39:37.701Z,15.90
2022-10-01T20:42:30.691Z,19.30
2022-10-01T20:45:26.706Z,18.20
2022-10-01T20:48:23.754Z,20.70
2022-10-01T20:51:25.943Z,17.40
2022-10-01T20:54:33.951Z,21.20
2022-10-01T20:57:25.881Z,16.90
2022-10-01T21:00:24.213Z,17.30
2022-10-01T21:03:34.414Z,16.30
2022-10-01T21:06:27.069Z,14.80
2022-10-01T21:09:26.246Z,20.10
2022-10-01T21:12:20.720Z,25.50
2022-10-01T21:15:06.509Z,23.50
2022-10-01T21:18:19.044Z,20.30
2022-10-01T21:21:21.796Z,21.50
2022-10-01T21:24:21.869Z,26.10
2022-10-01T21:27:22.034Z,18.80
2022-10-01T21:30:35.972Z,18.70
2022-10-01T21:33:53.470Z,17.70
2022-10-01T21:36:51.853Z,18.10
2022-10-01T21:40:00.884Z,17.60
2022-10-01T21:42:53.194Z,18.70
2022-10-01T21:45:54.840Z,21.80
2022-10-01T21:49:08.526Z,17.70
2022-10-01T21:52:02.809Z,15.30
2022-10-01T21:55:04.571Z,15.80
2022-10-01T21:58:02.339Z,16.40
2022-10-01T22:00:55.229Z,20.70
2022-10-01T22:04:23.885Z,17.40
2022-10-01T22:07:31.998Z,14.10
2022-10-01T22:10:35.808Z,14.70
2022-10-01T22:13:25.178Z,14.20
2022-10-01T22:16:13.838Z,16.30
2022-10-01T22:18:58.161Z,15.40
2022-10-01T22:21:46.211Z,16.60
2022-10-01T22:24:33.967Z,14.70
2022-10-01T22:27:33.540Z,15.40
2022-10-01T22:30:23.452Z,14.00
2022-10-01T22:33:31.457Z,15.10
2022-10-01T22:36:24.983Z,14.50
2022-10-01T22:39:23.921Z,13.10
2022-10-01T22:42:30.506Z,13.30
2022-10-01T22:45:14.766Z,14.70
2022-10-01T22:48:19.477Z,15.40
2022-10-01T22:51:19.907Z,14.10
2022-10-01T22:54:22.180Z,12.30
2022-10-01T22:57:31.932Z,14.30
2022-10-01T23:00:15.465Z,17.80
2022-10-01T23:03:23.496Z,14.60
2022-10-01T23:06:11.605Z,15.00
2022-10-01T23:09:07.847Z,15.10
2022-10-01T23:11:55.988Z,12.70
2022-10-01T23:14:57.953Z,14.50
2022-10-01T23:17:46.245Z,14.50
2022-10-01T23:20:34.853Z,15.10
2022-10-01T23:23:33.091Z,18.10
2022-10-01T23:26:23.123Z,21.80
2022-10-01T23:29:23.752Z,18.70
2022-10-01T23:32:13.431Z,16.60
2022-10-01T23:35:04.892Z,17.70
2022-10-01T23:38:10.605Z,18.60
2022-10-01T23:40:52.504Z,16.30
2022-10-01T23:43:48.328Z,17.40
2022-10-01T23:46:33.881Z,16.60
2022-10-01T23:49:17.161Z,17.60
2022-10-01T23:52:11.008Z,15.50
2022-10-01T23:55:17.999Z,16.50
2022-10-01T23:58:03.336Z,13.10
